createdAt,value
2018-09-30T00:01:30.256Z,8.00
2018-09-30T00:03:59.283Z,6.90
2018-09-30T00:06:29.141Z,7.43
2018-09-30T00:08:58.141Z,7.20
2018-09-30T00:11:27.841Z,7.40
2018-09-30T00:13:56.818Z,7.47
2018-09-30T00:16:25.925Z,7.53
2018-09-30T00:18:55.530Z,7.23
2018-09-30T00:21:24.917Z,7.17
2018-09-30T00:23:59.054Z,7.50
2018-09-30T00:26:33.364Z,6.97
2018-09-30T00:29:02.450Z,7.77
2018-09-30T00:31:31.893Z,7.17
2018-09-30T00:34:06.004Z,7.07
2018-09-30T00:36:35.426Z,6.60
2018-09-30T00:39:05.569Z,6.17
2018-09-30T00:41:34.545Z,6.30
2018-09-30T00:44:06.528Z,6.50
2018-09-30T00:46:35.550Z,6.23
2018-09-30T00:49:04.470Z,6.27
2018-09-30T00:51:33.495Z,5.73
2018-09-30T00:54:02.718Z,6.10
2018-09-30T00:56:31.973Z,6.00
2018-09-30T00:59:01.129Z,5.90
2018-09-30T01:01:30.272Z,5.87
2018-09-30T01:03:59.268Z,5.80
2018-09-30T01:06:28.978Z,5.83
2018-09-30T01:08:58.077Z,5.80
2018-09-30T01:11:27.585Z,5.80
2018-09-30T01:13:56.819Z,5.63
2018-09-30T01:16:25.978Z,5.63
2018-09-30T01:18:54.921Z,5.30
2018-09-30T01:21:23.835Z,5.80
2018-09-30T01:23:52.824Z,5.77
2018-09-30T01:26:21.764Z,5.60
2018-09-30T01:28:50.841Z,5.33
2018-09-30T01:31:19.919Z,5.73
2018-09-30T01:33:48.869Z,5.70
2018-09-30T01:36:17.803Z,5.93
2018-09-30T01:38:46.796Z,5.40
2018-09-30T01:41:15.829Z,6.17
2018-09-30T01:43:45.361Z,5.60
2018-09-30T01:46:14.909Z,5.50
2018-09-30T01:48:43.848Z,5.43
2018-09-30T01:51:12.816Z,5.20
2018-09-30T01:53:41.859Z,5.80
2018-09-30T01:56:11.160Z,5.97
2018-09-30T01:58:40.554Z,4.83
2018-09-30T02:01:09.840Z,5.23
2018-09-30T02:03:40.172Z,5.00
2018-09-30T02:06:09.318Z,5.17
2018-09-30T02:08:38.516Z,4.87
2018-09-30T02:11:07.752Z,5.20
2018-09-30T02:13:36.754Z,5.47
2018-09-30T02:16:05.833Z,5.37
2018-09-30T02:18:34.828Z,5.23
2018-09-30T02:21:03.877Z,4.80
2018-09-30T02:23:33.041Z,5.33
2018-09-30T02:26:02.306Z,5.53
2018-09-30T02:28:31.265Z,5.80
2018-09-30T02:31:00.320Z,4.93
2018-09-30T02:33:29.978Z,4.90
2018-09-30T02:35:59.091Z,4.70
2018-09-30T02:38:28.741Z,4.80
2018-09-30T02:40:58.121Z,5.07
2018-09-30T02:43:27.792Z,5.43
2018-09-30T02:45:56.840Z,5.13
2018-09-30T02:48:26.012Z,5.00
2018-09-30T02:50:55.081Z,4.50
2018-09-30T02:53:24.300Z,4.57
2018-09-30T02:55:53.336Z,4.43
2018-09-30T02:58:22.734Z,4.47
2018-09-30T03:00:51.871Z,4.50
2018-09-30T03:03:20.908Z,3.97
2018-09-30T03:05:49.898Z,4.37
2018-09-30T03:08:23.983Z,4.83
2018-09-30T03:10:53.801Z,4.37
2018-09-30T03:13:23.260Z,4.60
2018-09-30T03:15:52.507Z,4.80
2018-09-30T03:18:21.490Z,3.80
2018-09-30T03:20:50.444Z,4.07
2018-09-30T03:23:19.541Z,4.20
2018-09-30T03:25:48.781Z,4.50
2018-09-30T03:28:17.823Z,4.00
2018-09-30T03:30:46.991Z,4.00
2018-09-30T03:33:15.935Z,4.47
2018-09-30T03:35:44.928Z,3.57
2018-09-30T03:38:14.024Z,3.50
2018-09-30T03:40:43.004Z,3.57
2018-09-30T03:43:12.451Z,3.47
2018-09-30T03:45:42.596Z,3.33
2018-09-30T03:48:11.599Z,3.43
2018-09-30T03:50:40.674Z,3.50
2018-09-30T03:53:13.747Z,3.57
2018-09-30T03:55:42.769Z,3.40
2018-09-30T03:58:11.952Z,3.03
2018-09-30T04:00:41.482Z,3.00
2018-09-30T04:03:10.691Z,3.07
2018-09-30T04:05:40.671Z,3.40
2018-09-30T04:08:09.759Z,3.30
2018-09-30T04:10:38.760Z,3.30
2018-09-30T04:13:10.835Z,3.30
2018-09-30T04:15:40.277Z,3.13
2018-09-30T04:18:09.339Z,2.97
2018-09-30T04:20:38.619Z,3.10
2018-09-30T04:23:07.690Z,2.60
2018-09-30T04:25:38.260Z,3.00
2018-09-30T04:28:07.540Z,2.80
2018-09-30T04:30:36.601Z,3.03
2018-09-30T04:33:05.928Z,3.00
2018-09-30T04:35:34.977Z,2.80
2018-09-30T04:38:04.042Z,2.60
2018-09-30T04:40:33.886Z,2.73
2018-09-30T04:43:02.857Z,2.50
2018-09-30T04:45:31.745Z,2.50
2018-09-30T04:48:00.713Z,2.40
2018-09-30T04:50:30.269Z,2.43
2018-09-30T04:52:59.244Z,2.30
2018-09-30T04:55:29.887Z,2.30
2018-09-30T04:57:58.836Z,2.47
2018-09-30T05:00:28.208Z,2.43
2018-09-30T05:02:57.745Z,2.60
2018-09-30T05:05:27.104Z,2.17
2018-09-30T05:07:56.130Z,2.27
2018-09-30T05:10:25.679Z,2.57
2018-09-30T05:12:54.728Z,2.53
2018-09-30T05:15:24.138Z,2.20
2018-09-30T05:17:53.136Z,2.40
2018-09-30T05:20:22.044Z,2.10
2018-09-30T05:22:51.107Z,2.40
2018-09-30T05:25:20.061Z,2.80
2018-09-30T05:27:48.980Z,2.63
2018-09-30T05:30:20.136Z,2.40
2018-09-30T05:32:49.066Z,2.50
2018-09-30T05:35:19.938Z,2.27
2018-09-30T05:37:48.939Z,3.07
2018-09-30T05:40:20.702Z,2.57
2018-09-30T05:42:50.127Z,2.47
2018-09-30T05:45:19.956Z,2.13
2018-09-30T05:47:48.929Z,2.60
2018-09-30T05:50:20.388Z,2.43
2018-09-30T05:52:49.525Z,2.17
2018-09-30T05:55:21.897Z,2.57
2018-09-30T05:57:50.880Z,2.53
2018-09-30T06:00:20.333Z,2.97
2018-09-30T06:02:49.368Z,2.77
2018-09-30T06:05:21.483Z,2.70
2018-09-30T06:07:50.436Z,2.67
2018-09-30T06:10:21.838Z,2.60
2018-09-30T06:12:50.815Z,2.93
2018-09-30T06:15:19.842Z,2.93
2018-09-30T06:17:48.782Z,2.40
2018-09-30T06:20:23.477Z,2.53
2018-09-30T06:22:52.993Z,2.60
2018-09-30T06:25:21.993Z,3.03
2018-09-30T06:27:50.992Z,2.77
2018-09-30T06:30:21.686Z,2.50
2018-09-30T06:32:50.646Z,2.30
2018-09-30T06:35:20.379Z,2.30
2018-09-30T06:37:49.345Z,2.63
2018-09-30T06:40:21.785Z,2.60
2018-09-30T06:42:51.583Z,2.53
2018-09-30T06:45:20.622Z,3.10
2018-09-30T06:47:49.662Z,2.60
2018-09-30T06:50:21.432Z,2.77
2018-09-30T06:52:50.483Z,2.60
2018-09-30T06:55:19.818Z,2.40
2018-09-30T06:57:49.184Z,2.23
2018-09-30T07:00:20.491Z,2.57
2018-09-30T07:02:49.491Z,2.63
2018-09-30T07:05:20.673Z,2.90
2018-09-30T07:07:50.657Z,2.50
2018-09-30T07:10:21.222Z,2.63
2018-09-30T07:12:50.245Z,3.33
2018-09-30T07:15:20.179Z,3.00
2018-09-30T07:17:49.971Z,2.60
2018-09-30T07:20:22.036Z,3.30
2018-09-30T07:22:51.173Z,3.67
2018-09-30T07:25:20.131Z,3.73
2018-09-30T07:27:49.433Z,3.10
2018-09-30T07:30:20.984Z,3.60
2018-09-30T07:32:50.618Z,3.47
2018-09-30T07:35:19.731Z,2.73
2018-09-30T07:37:48.765Z,2.33
2018-09-30T07:40:20.852Z,2.33
2018-09-30T07:42:49.906Z,2.90
2018-09-30T07:45:21.648Z,3.00
2018-09-30T07:47:50.673Z,3.13
2018-09-30T07:50:23.543Z,3.30
2018-09-30T07:52:52.570Z,2.80
2018-09-30T07:55:21.613Z,2.70
2018-09-30T07:57:50.552Z,2.57
2018-09-30T08:00:23.230Z,3.03
2018-09-30T08:02:52.180Z,2.90
2018-09-30T08:05:24.042Z,2.90
2018-09-30T08:07:53.013Z,2.70
2018-09-30T08:10:23.659Z,2.80
2018-09-30T08:12:52.881Z,2.80
2018-09-30T08:15:23.114Z,2.57
2018-09-30T08:17:52.148Z,2.67
2018-09-30T08:20:22.994Z,2.63
2018-09-30T08:22:52.074Z,2.67
2018-09-30T08:25:22.643Z,2.50
2018-09-30T08:27:51.596Z,2.47
2018-09-30T08:30:23.836Z,2.73
2018-09-30T08:32:52.825Z,2.77
2018-09-30T08:35:24.105Z,2.77
2018-09-30T08:37:58.252Z,2.47
2018-09-30T08:40:32.543Z,2.90
2018-09-30T08:43:01.605Z,3.00
2018-09-30T08:45:30.821Z,3.13
2018-09-30T08:47:59.906Z,2.90
2018-09-30T08:50:29.432Z,3.10
2018-09-30T08:52:58.366Z,2.93
2018-09-30T08:55:28.561Z,3.30
2018-09-30T08:57:57.583Z,2.73
2018-09-30T09:00:26.742Z,3.13
2018-09-30T09:02:55.774Z,3.00
2018-09-30T09:05:24.839Z,3.00
2018-09-30T09:07:54.156Z,3.03
2018-09-30T09:10:23.528Z,10.63
2018-09-30T09:12:52.478Z,6.57
2018-09-30T09:15:23.236Z,3.40
2018-09-30T09:17:52.672Z,3.10
2018-09-30T09:20:24.055Z,3.03
2018-09-30T09:22:53.470Z,3.10
2018-09-30T09:25:22.839Z,2.93
2018-09-30T09:27:51.971Z,3.03
2018-09-30T09:30:23.621Z,2.90
2018-09-30T09:32:52.641Z,2.90
2018-09-30T09:35:22.575Z,3.00
2018-09-30T09:40:44.771Z,3.23
2018-09-30T09:43:13.792Z,3.30
2018-09-30T09:45:42.934Z,3.23
2018-09-30T09:48:11.901Z,3.00
2018-09-30T09:50:40.892Z,3.30
2018-09-30T09:53:09.870Z,3.17
2018-09-30T09:55:38.851Z,3.50
2018-09-30T09:58:07.964Z,3.60
2018-09-30T10:00:42.087Z,3.23
2018-09-30T10:03:11.139Z,3.13
2018-09-30T10:05:41.177Z,3.30
2018-09-30T10:08:10.213Z,4.70
2018-09-30T10:10:39.867Z,3.43
2018-09-30T10:13:09.283Z,3.23
2018-09-30T10:15:38.292Z,3.80
2018-09-30T10:18:07.334Z,3.40
2018-09-30T10:20:36.900Z,4.63
2018-09-30T10:23:05.995Z,6.13
2018-09-30T10:25:35.541Z,4.60
2018-09-30T10:28:04.662Z,4.47
2018-09-30T10:30:33.766Z,3.80
2018-09-30T10:33:02.865Z,3.50
2018-09-30T10:35:32.419Z,3.10
2018-09-30T10:38:01.511Z,3.80
2018-09-30T10:40:30.728Z,3.97
2018-09-30T10:43:00.143Z,3.50
2018-09-30T10:45:30.009Z,3.70
2018-09-30T10:47:59.082Z,8.90
2018-09-30T10:50:29.284Z,13.10
2018-09-30T10:52:58.393Z,5.53
2018-09-30T10:55:28.050Z,5.40
2018-09-30T10:57:57.516Z,3.93
2018-09-30T11:00:28.525Z,4.70
2018-09-30T11:02:57.622Z,3.30
2018-09-30T11:05:26.815Z,4.87
2018-09-30T11:07:55.976Z,4.07
2018-09-30T11:10:26.248Z,4.57
2018-09-30T11:12:55.279Z,3.83
2018-09-30T11:15:24.206Z,3.40
2018-09-30T11:17:53.615Z,3.70
2018-09-30T11:20:24.324Z,3.30
2018-09-30T11:22:53.446Z,3.43
2018-09-30T11:25:22.505Z,3.20
2018-09-30T11:27:51.921Z,3.33
2018-09-30T11:30:23.681Z,3.17
2018-09-30T11:32:52.660Z,3.20
2018-09-30T11:35:22.450Z,3.17
2018-09-30T11:37:51.748Z,3.30
2018-09-30T11:40:23.915Z,3.40
2018-09-30T11:42:52.916Z,3.33
2018-09-30T11:45:22.715Z,3.00
2018-09-30T11:47:51.715Z,3.47
2018-09-30T11:50:23.480Z,3.13
2018-09-30T11:52:52.487Z,3.40
2018-09-30T11:55:22.814Z,3.40
2018-09-30T11:57:51.842Z,3.37
2018-09-30T12:00:23.565Z,3.03
2018-09-30T12:02:52.717Z,3.10
2018-09-30T12:05:23.390Z,3.10
2018-09-30T12:07:52.438Z,3.20
2018-09-30T12:10:23.293Z,3.40
2018-09-30T12:12:52.392Z,3.57
2018-09-30T12:15:23.429Z,3.33
2018-09-30T12:17:52.501Z,3.40
2018-09-30T12:20:24.136Z,3.37
2018-09-30T12:22:53.249Z,3.30
2018-09-30T12:25:22.433Z,3.40
2018-09-30T12:27:51.505Z,3.00
2018-09-30T12:30:20.737Z,3.30
2018-09-30T12:32:49.980Z,2.97
2018-09-30T12:35:23.065Z,2.93
2018-09-30T12:37:52.153Z,3.00
2018-09-30T12:40:24.210Z,2.80
2018-09-30T12:42:53.212Z,3.23
2018-09-30T12:45:22.148Z,3.33
2018-09-30T12:47:51.569Z,3.20
2018-09-30T12:50:23.329Z,2.80
2018-09-30T12:52:52.714Z,3.30
2018-09-30T12:55:22.160Z,2.70
2018-09-30T12:57:51.254Z,3.23
2018-09-30T13:00:22.924Z,3.13
2018-09-30T13:02:51.887Z,3.03
2018-09-30T13:05:22.816Z,3.10
2018-09-30T13:07:51.831Z,2.87
2018-09-30T13:10:23.733Z,2.80
2018-09-30T13:12:58.064Z,3.23
2018-09-30T13:15:28.524Z,3.30
2018-09-30T13:17:57.824Z,3.10
2018-09-30T13:20:27.349Z,2.80
2018-09-30T13:22:56.433Z,3.37
2018-09-30T13:25:25.562Z,2.50
2018-09-30T13:27:54.532Z,3.17
2018-09-30T13:30:24.333Z,3.10
2018-09-30T13:32:54.212Z,3.00
2018-09-30T13:35:23.320Z,3.10
2018-09-30T13:37:52.514Z,3.00
2018-09-30T13:40:24.557Z,2.70
2018-09-30T13:42:53.621Z,3.30
2018-09-30T13:45:23.067Z,3.17
2018-09-30T13:47:52.063Z,3.00
2018-09-30T13:50:22.629Z,3.10
2018-09-30T13:52:51.745Z,2.87
2018-09-30T13:55:21.596Z,3.07
2018-09-30T13:57:50.654Z,3.33
2018-09-30T14:00:23.127Z,3.57
2018-09-30T14:02:52.172Z,3.00
2018-09-30T14:05:23.895Z,3.13
2018-09-30T14:07:53.054Z,3.33
2018-09-30T14:10:24.226Z,3.40
2018-09-30T14:12:53.406Z,3.10
2018-09-30T14:15:22.549Z,3.00
2018-09-30T14:17:51.608Z,2.80
2018-09-30T14:20:22.765Z,3.20
2018-09-30T14:22:51.973Z,3.40
2018-09-30T14:25:21.565Z,2.90
2018-09-30T14:27:50.717Z,2.80
2018-09-30T14:30:22.650Z,3.10
2018-09-30T14:32:51.816Z,3.03
2018-09-30T14:35:23.333Z,2.70
2018-09-30T14:37:52.480Z,3.10
2018-09-30T14:40:22.601Z,2.80
2018-09-30T14:42:52.006Z,2.90
2018-09-30T14:45:22.256Z,3.00
2018-09-30T14:47:51.609Z,3.10
2018-09-30T14:50:23.207Z,3.07
2018-09-30T14:52:52.219Z,2.93
2018-09-30T14:55:24.707Z,2.87
2018-09-30T14:57:54.017Z,3.13
2018-09-30T15:00:23.142Z,3.07
2018-09-30T15:02:52.265Z,4.33
2018-09-30T15:05:22.723Z,3.23
2018-09-30T15:07:51.703Z,3.20
2018-09-30T15:10:23.958Z,3.43
2018-09-30T15:12:53.405Z,3.60
2018-09-30T15:15:22.495Z,3.00
2018-09-30T15:17:51.648Z,3.40
2018-09-30T15:20:23.121Z,3.20
2018-09-30T15:22:52.554Z,3.30
2018-09-30T15:25:21.815Z,3.50
2018-09-30T15:27:51.095Z,2.90
2018-09-30T15:30:23.283Z,2.90
2018-09-30T15:32:52.645Z,2.77
2018-09-30T15:35:23.260Z,2.90
2018-09-30T15:37:52.290Z,3.40
2018-09-30T15:40:23.128Z,3.17
2018-09-30T15:42:52.233Z,2.90
2018-09-30T15:45:21.140Z,2.53
2018-09-30T15:47:50.064Z,3.20
2018-09-30T15:50:19.195Z,2.80
2018-09-30T15:52:48.204Z,3.00
2018-09-30T15:55:20.519Z,2.80
2018-09-30T15:57:49.824Z,2.87
2018-09-30T16:00:21.823Z,3.33
2018-09-30T16:02:50.871Z,2.93
2018-09-30T16:05:19.896Z,2.83
2018-09-30T16:07:48.906Z,2.67
2018-09-30T16:10:17.988Z,3.10
2018-09-30T16:12:47.018Z,2.93
2018-09-30T16:15:19.382Z,2.67
2018-09-30T16:17:48.692Z,2.70
2018-09-30T16:20:21.529Z,2.70
2018-09-30T16:22:50.571Z,2.47
2018-09-30T16:25:35.274Z,2.97
2018-09-30T16:28:10.108Z,2.80
2018-09-30T16:30:42.982Z,2.70
2018-09-30T16:33:12.173Z,2.87
2018-09-30T16:35:41.909Z,2.70
2018-09-30T16:38:13.536Z,3.00
2018-09-30T16:40:42.604Z,2.57
2018-09-30T16:43:11.843Z,2.80
2018-09-30T16:45:41.547Z,3.10
2018-09-30T16:48:10.756Z,2.23
2018-09-30T16:50:53.438Z,2.90
2018-09-30T16:53:38.388Z,2.70
2018-09-30T16:56:07.812Z,2.70
2018-09-30T16:58:37.046Z,2.90
2018-09-30T17:01:06.175Z,3.47
2018-09-30T17:03:35.196Z,2.87
2018-09-30T17:06:04.252Z,2.67
2018-09-30T17:08:33.788Z,3.00
2018-09-30T17:11:03.440Z,3.37
2018-09-30T17:13:32.374Z,3.20
2018-09-30T17:16:01.780Z,2.93
2018-09-30T17:18:30.937Z,2.73
2018-09-30T17:21:00.414Z,2.73
2018-09-30T17:23:29.781Z,2.70
2018-09-30T17:25:59.400Z,2.70
2018-09-30T17:28:48.773Z,2.70
2018-09-30T17:31:41.176Z,2.80
2018-09-30T17:34:27.317Z,3.00
2018-09-30T17:37:21.108Z,3.00
2018-09-30T17:39:51.021Z,2.97
2018-09-30T17:42:20.181Z,3.50
2018-09-30T17:44:49.975Z,3.43
2018-09-30T17:47:19.485Z,3.33
2018-09-30T17:49:49.212Z,3.30
2018-09-30T17:52:18.188Z,3.50
2018-09-30T17:54:47.490Z,3.20
2018-09-30T17:57:16.769Z,3.30
2018-09-30T17:59:45.788Z,3.20
2018-09-30T18:02:14.813Z,3.37
2018-09-30T18:04:44.054Z,3.20
2018-09-30T18:07:14.485Z,3.10
2018-09-30T18:09:44.057Z,3.30
2018-09-30T18:12:13.358Z,3.90
2018-09-30T18:14:43.054Z,3.40
2018-09-30T18:17:12.875Z,3.37
2018-09-30T18:19:43.225Z,3.40
2018-09-30T18:22:17.052Z,3.60
2018-09-30T18:24:47.317Z,3.57
2018-09-30T18:27:28.246Z,5.50
2018-09-30T18:29:57.564Z,5.53
2018-09-30T18:32:27.032Z,7.47
2018-09-30T18:34:56.072Z,5.27
2018-09-30T18:37:25.254Z,5.77
2018-09-30T18:39:55.284Z,4.50
2018-09-30T18:42:24.624Z,4.27
2018-09-30T18:44:53.631Z,3.80
2018-09-30T18:47:22.628Z,3.50
2018-09-30T18:49:51.822Z,3.57
2018-09-30T18:52:21.189Z,4.03
2018-09-30T18:54:50.199Z,4.10
2018-09-30T18:57:19.352Z,4.00
2018-09-30T18:59:48.417Z,3.40
2018-09-30T19:02:17.887Z,3.57
2018-09-30T19:04:46.874Z,3.40
2018-09-30T19:07:15.979Z,3.63
2018-09-30T19:09:45.352Z,3.57
2018-09-30T19:12:14.598Z,3.83
2018-09-30T19:14:43.638Z,3.60
2018-09-30T19:17:13.116Z,3.80
2018-09-30T19:19:42.388Z,3.30
2018-09-30T19:22:11.578Z,4.00
2018-09-30T19:24:40.610Z,3.73
2018-09-30T19:27:10.058Z,4.00
2018-09-30T19:29:39.082Z,3.30
2018-09-30T19:32:08.171Z,3.53
2018-09-30T19:34:37.236Z,3.70
2018-09-30T19:37:06.394Z,3.73
2018-09-30T19:39:35.563Z,3.40
2018-09-30T19:42:04.797Z,3.40
2018-09-30T19:44:34.104Z,3.20
2018-09-30T19:47:03.200Z,3.50
2018-09-30T19:49:32.334Z,3.23
2018-09-30T19:52:01.763Z,3.60
2018-09-30T19:54:31.443Z,3.53
2018-09-30T19:57:00.643Z,3.73
2018-09-30T19:59:30.157Z,3.70
2018-09-30T20:01:59.281Z,3.50
2018-09-30T20:04:29.061Z,3.70
2018-09-30T20:06:58.140Z,4.13
2018-09-30T20:09:27.688Z,3.47
2018-09-30T20:11:56.796Z,3.33
2018-09-30T20:14:25.876Z,3.83
2018-09-30T20:16:54.984Z,4.10
2018-09-30T20:19:24.008Z,3.60
2018-09-30T20:21:53.707Z,3.90
2018-09-30T20:24:22.798Z,3.30
2018-09-30T20:26:51.795Z,3.63
2018-09-30T20:29:20.717Z,3.93
2018-09-30T20:31:49.764Z,3.80
2018-09-30T20:34:18.893Z,3.87
2018-09-30T20:36:47.876Z,3.40
2018-09-30T20:39:16.804Z,4.00
2018-09-30T20:41:45.936Z,3.87
2018-09-30T20:44:14.932Z,4.03
2018-09-30T20:46:43.908Z,4.00
2018-09-30T20:49:13.497Z,4.07
2018-09-30T20:51:42.528Z,4.70
2018-09-30T20:54:11.829Z,4.20
2018-09-30T20:56:40.873Z,4.30
2018-09-30T20:59:09.942Z,4.10
2018-09-30T21:01:38.000Z,4.50
2018-09-30T21:04:07.229Z,4.20
2018-09-30T21:06:42.220Z,4.10
2018-09-30T21:09:12.865Z,4.30
2018-09-30T21:11:41.875Z,4.20
2018-09-30T21:14:10.912Z,3.80
2018-09-30T21:31:46.868Z,3.77
2018-09-30T21:34:16.431Z,4.27
2018-09-30T21:36:45.551Z,4.00
2018-09-30T21:39:15.626Z,4.53
2018-09-30T21:41:44.636Z,4.07
2018-09-30T21:44:13.666Z,4.17
2018-09-30T21:46:42.857Z,3.77
2018-09-30T21:49:12.029Z,3.53
2018-09-30T21:51:41.480Z,4.10
2018-09-30T21:54:10.660Z,4.50
2018-09-30T21:56:39.748Z,4.60
2018-09-30T21:59:08.920Z,4.50
2018-09-30T22:01:38.094Z,4.07
2018-09-30T22:04:07.148Z,4.13
2018-09-30T22:06:36.143Z,4.30
2018-09-30T22:09:06.066Z,4.23
2018-09-30T22:11:35.129Z,4.20
2018-09-30T22:14:04.294Z,4.33
2018-09-30T22:16:33.354Z,4.27
2018-09-30T22:19:03.277Z,4.27
2018-09-30T22:25:22.436Z,4.43
2018-09-30T22:28:32.569Z,4.27
2018-09-30T22:31:01.596Z,4.70
2018-09-30T22:33:31.438Z,4.27
2018-09-30T22:36:00.518Z,5.03
2018-09-30T22:38:30.292Z,4.53
2018-09-30T22:40:59.310Z,4.20
2018-09-30T22:43:28.822Z,4.30
2018-09-30T22:45:57.918Z,4.10
2018-09-30T22:48:27.551Z,4.37
2018-09-30T22:50:56.751Z,4.23
2018-09-30T22:53:25.828Z,4.33
2018-09-30T22:55:54.936Z,3.87
2018-09-30T22:58:23.988Z,4.17
2018-09-30T23:00:53.433Z,4.20
2018-09-30T23:03:22.619Z,4.00
2018-09-30T23:05:51.640Z,3.80
2018-09-30T23:08:20.764Z,4.27
2018-09-30T23:10:49.846Z,4.07
2018-09-30T23:13:18.981Z,4.30
2018-09-30T23:15:48.392Z,3.93
2018-09-30T23:18:17.645Z,4.20
2018-09-30T23:20:46.858Z,4.20
2018-09-30T23:23:15.980Z,3.93
2018-09-30T23:25:45.055Z,3.80
2018-09-30T23:28:14.245Z,3.97
2018-09-30T23:30:43.624Z,4.27
2018-09-30T23:33:12.800Z,4.57
2018-09-30T23:35:41.906Z,4.20
2018-09-30T23:38:11.093Z,4.23
2018-09-30T23:40:40.292Z,5.13
2018-09-30T23:43:09.536Z,4.67
2018-09-30T23:45:40.021Z,4.60
2018-09-30T23:48:09.144Z,5.03
2018-09-30T23:50:38.333Z,4.50
2018-09-30T23:53:07.847Z,5.17
2018-09-30T23:55:37.056Z,4.50
2018-09-30T23:58:14.624Z,5.20
